sensor_id;sensor_type;location;lat;lon;timestamp;P1;durP1;ratioP1;P2;durP2;ratioP2
28802;SDS011;15949;55.656;37.422;2024-01-15T00:05:04;31.05;;;14.85;;
28802;SDS011;15949;55.656;37.422;2024-01-15T00:10:09;25.85;;;13.68;;
28802;SDS011;15949;55.656;37.422;2024-01-15T00:15:15;27.30;;;13.85;;
28802;SDS011;15949;55.656;37.422;2024-01-15T00:20:21;27.42;;;13.52;;
28802;SDS011;15949;55.656;37.422;2024-01-15T00:25:26;26.80;;;13.65;;
28802;SDS011;15949;55.656;37.422;2024-01-15T00:30:32;27.40;;;13.55;;
28802;SDS011;15949;55.656;37.422;2024-01-15T00:35:37;23.95;;;13.15;;
28802;SDS011;15949;55.656;37.422;2024-01-15T00:40:43;27.60;;;14.40;;
28802;SDS011;15949;55.656;37.422;2024-01-15T00:45:49;24.80;;;13.20;;
28802;SDS011;15949;55.656;37.422;2024-01-15T00:50:54;28.42;;;13.52;;
28802;SDS011;15949;55.656;37.422;2024-01-15T00:56:00;25.90;;;13.93;;
28802;SDS011;15949;55.656;37.422;2024-01-15T01:01:06;31.65;;;14.52;;
28802;SDS011;15949;55.656;37.422;2024-01-15T01:06:11;26.75;;;14.65;;
28802;SDS011;15949;55.656;37.422;2024-01-15T01:11:17;24.42;;;14.20;;
28802;SDS011;15949;55.656;37.422;2024-01-15T01:16:22;29.85;;;14.98;;
28802;SDS011;15949;55.656;37.422;2024-01-15T01:21:28;24.98;;;13.95;;
28802;SDS011;15949;55.656;37.422;2024-01-15T01:26:34;27.73;;;14.68;;
28802;SDS011;15949;55.656;37.422;2024-01-15T01:31:45;26.45;;;14.23;;
28802;SDS011;15949;55.656;37.422;2024-01-15T01:36:51;28.02;;;14.02;;
28802;SDS011;15949;55.656;37.422;2024-01-15T01:41:57;24.42;;;14.35;;
28802;SDS011;15949;55.656;37.422;2024-01-15T01:47:02;29.40;;;14.85;;
28802;SDS011;15949;55.656;37.422;2024-01-15T01:52:09;26.98;;;14.65;;
28802;SDS011;15949;55.656;37.422;2024-01-15T01:57:15;26.67;;;14.38;;
28802;SDS011;15949;55.656;37.422;2024-01-15T02:02:23;27.55;;;14.77;;
28802;SDS011;15949;55.656;37.422;2024-01-15T02:07:29;27.40;;;15.13;;
28802;SDS011;15949;55.656;37.422;2024-01-15T02:12:35;28.60;;;15.13;;
28802;SDS011;15949;55.656;37.422;2024-01-15T02:23:09;25.70;;;14.45;;
28802;SDS011;15949;55.656;37.422;2024-01-15T02:28:16;26.38;;;15.32;;
28802;SDS011;15949;55.656;37.422;2024-01-15T02:33:23;28.40;;;15.85;;
28802;SDS011;15949;55.656;37.422;2024-01-15T02:38:28;33.03;;;17.17;;
28802;SDS011;15949;55.656;37.422;2024-01-15T02:43:34;29.05;;;16.88;;
28802;SDS011;15949;55.656;37.422;2024-01-15T02:48:40;35.72;;;17.48;;
28802;SDS011;15949;55.656;37.422;2024-01-15T02:53:45;31.60;;;17.95;;
28802;SDS011;15949;55.656;37.422;2024-01-15T02:58:51;32.15;;;16.85;;
28802;SDS011;15949;55.656;37.422;2024-01-15T03:03:56;30.35;;;17.17;;
28802;SDS011;15949;55.656;37.422;2024-01-15T03:09:02;30.17;;;17.10;;
28802;SDS011;15949;55.656;37.422;2024-01-15T03:14:08;30.90;;;16.92;;
28802;SDS011;15949;55.656;37.422;2024-01-15T03:19:14;30.90;;;17.40;;
28802;SDS011;15949;55.656;37.422;2024-01-15T03:24:20;31.77;;;16.80;;
28802;SDS011;15949;55.656;37.422;2024-01-15T03:29:25;38.53;;;18.52;;
28802;SDS011;15949;55.656;37.422;2024-01-15T03:34:32;30.55;;;17.55;;
28802;SDS011;15949;55.656;37.422;2024-01-15T03:39:37;32.22;;;18.38;;
28802;SDS011;15949;55.656;37.422;2024-01-15T03:44:43;31.55;;;18.10;;
28802;SDS011;15949;55.656;37.422;2024-01-15T03:49:49;35.45;;;18.45;;
28802;SDS011;15949;55.656;37.422;2024-01-15T03:54:54;34.95;;;18.67;;
28802;SDS011;15949;55.656;37.422;2024-01-15T04:00:00;33.53;;;18.02;;
28802;SDS011;15949;55.656;37.422;2024-01-15T04:05:06;32.40;;;18.52;;
28802;SDS011;15949;55.656;37.422;2024-01-15T04:10:11;34.28;;;19.13;;
28802;SDS011;15949;55.656;37.422;2024-01-15T04:15:17;35.42;;;19.80;;
28802;SDS011;15949;55.656;37.422;2024-01-15T04:20:23;34.50;;;19.70;;
28802;SDS011;15949;55.656;37.422;2024-01-15T04:25:28;35.55;;;19.50;;
28802;SDS011;15949;55.656;37.422;2024-01-15T04:30:34;34.38;;;19.48;;
28802;SDS011;15949;55.656;37.422;2024-01-15T04:35:40;34.38;;;19.70;;
28802;SDS011;15949;55.656;37.422;2024-01-15T04:40:45;36.30;;;20.60;;
28802;SDS011;15949;55.656;37.422;2024-01-15T04:45:51;38.58;;;20.85;;
28802;SDS011;15949;55.656;37.422;2024-01-15T04:50:57;34.35;;;20.10;;
28802;SDS011;15949;55.656;37.422;2024-01-15T04:56:03;33.83;;;19.90;;
28802;SDS011;15949;55.656;37.422;2024-01-15T05:01:08;35.30;;;20.05;;
28802;SDS011;15949;55.656;37.422;2024-01-15T05:06:15;37.42;;;19.73;;
28802;SDS011;15949;55.656;37.422;2024-01-15T05:11:20;37.13;;;20.77;;
28802;SDS011;15949;55.656;37.422;2024-01-15T05:16:26;35.10;;;19.90;;
28802;SDS011;15949;55.656;37.422;2024-01-15T05:21:32;38.00;;;21.38;;
28802;SDS011;15949;55.656;37.422;2024-01-15T05:26:37;38.28;;;21.60;;
28802;SDS011;15949;55.656;37.422;2024-01-15T05:31:43;37.72;;;21.27;;
28802;SDS011;15949;55.656;37.422;2024-01-15T05:36:49;36.63;;;21.83;;
28802;SDS011;15949;55.656;37.422;2024-01-15T05:41:54;38.25;;;21.58;;
28802;SDS011;15949;55.656;37.422;2024-01-15T05:47:00;38.38;;;22.35;;
28802;SDS011;15949;55.656;37.422;2024-01-15T05:52:06;37.25;;;21.30;;
28802;SDS011;15949;55.656;37.422;2024-01-15T05:57:11;36.35;;;21.42;;
28802;SDS011;15949;55.656;37.422;2024-01-15T06:02:17;34.53;;;20.67;;
28802;SDS011;15949;55.656;37.422;2024-01-15T06:07:23;38.38;;;21.13;;
28802;SDS011;15949;55.656;37.422;2024-01-15T06:12:29;35.78;;;20.98;;
28802;SDS011;15949;55.656;37.422;2024-01-15T06:17:34;37.80;;;21.42;;
28802;SDS011;15949;55.656;37.422;2024-01-15T06:22:40;36.30;;;22.00;;
28802;SDS011;15949;55.656;37.422;2024-01-15T06:27:46;35.85;;;21.02;;
28802;SDS011;15949;55.656;37.422;2024-01-15T06:32:52;38.17;;;21.70;;
28802;SDS011;15949;55.656;37.422;2024-01-15T06:37:57;37.75;;;21.13;;
28802;SDS011;15949;55.656;37.422;2024-01-15T06:43:03;38.60;;;21.77;;
28802;SDS011;15949;55.656;37.422;2024-01-15T06:48:09;35.30;;;20.83;;
28802;SDS011;15949;55.656;37.422;2024-01-15T06:53:15;36.88;;;21.88;;
28802;SDS011;15949;55.656;37.422;2024-01-15T06:58:20;35.70;;;22.05;;
28802;SDS011;15949;55.656;37.422;2024-01-15T07:03:26;39.20;;;22.15;;
28802;SDS011;15949;55.656;37.422;2024-01-15T07:08:31;36.25;;;21.02;;
28802;SDS011;15949;55.656;37.422;2024-01-15T07:13:37;35.25;;;21.20;;
28802;SDS011;15949;55.656;37.422;2024-01-15T07:18:43;35.17;;;21.08;;
28802;SDS011;15949;55.656;37.422;2024-01-15T07:23:48;36.42;;;20.73;;
28802;SDS011;15949;55.656;37.422;2024-01-15T07:28:54;35.72;;;20.65;;
28802;SDS011;15949;55.656;37.422;2024-01-15T07:33:59;35.17;;;20.48;;
28802;SDS011;15949;55.656;37.422;2024-01-15T07:39:05;35.17;;;20.95;;
28802;SDS011;15949;55.656;37.422;2024-01-15T07:44:11;38.35;;;21.73;;
28802;SDS011;15949;55.656;37.422;2024-01-15T07:49:16;33.85;;;20.25;;
28802;SDS011;15949;55.656;37.422;2024-01-15T07:54:22;41.33;;;21.23;;
28802;SDS011;15949;55.656;37.422;2024-01-15T07:59:28;35.35;;;21.85;;
28802;SDS011;15949;55.656;37.422;2024-01-15T08:04:34;35.67;;;21.30;;
28802;SDS011;15949;55.656;37.422;2024-01-15T08:09:41;36.10;;;20.15;;
28802;SDS011;15949;55.656;37.422;2024-01-15T08:14:47;34.47;;;20.98;;
28802;SDS011;15949;55.656;37.422;2024-01-15T08:19:53;35.17;;;21.70;;
28802;SDS011;15949;55.656;37.422;2024-01-15T08:24:58;40.90;;;22.85;;
28802;SDS011;15949;55.656;37.422;2024-01-15T08:30:04;34.08;;;20.98;;
28802;SDS011;15949;55.656;37.422;2024-01-15T08:35:10;33.83;;;20.10;;
28802;SDS011;15949;55.656;37.422;2024-01-15T08:40:16;31.05;;;19.48;;
28802;SDS011;15949;55.656;37.422;2024-01-15T08:45:22;29.67;;;19.17;;
28802;SDS011;15949;55.656;37.422;2024-01-15T08:50:28;32.20;;;19.23;;
28802;SDS011;15949;55.656;37.422;2024-01-15T08:55:34;29.52;;;18.50;;
28802;SDS011;15949;55.656;37.422;2024-01-15T09:00:40;30.45;;;19.40;;
28802;SDS011;15949;55.656;37.422;2024-01-15T09:05:46;34.05;;;19.13;;
28802;SDS011;15949;55.656;37.422;2024-01-15T09:10:51;30.77;;;19.10;;
28802;SDS011;15949;55.656;37.422;2024-01-15T09:15:58;31.75;;;19.80;;
28802;SDS011;15949;55.656;37.422;2024-01-15T09:21:04;29.90;;;19.20;;
28802;SDS011;15949;55.656;37.422;2024-01-15T09:26:10;30.95;;;19.13;;
28802;SDS011;15949;55.656;37.422;2024-01-15T09:31:15;30.73;;;18.42;;
28802;SDS011;15949;55.656;37.422;2024-01-15T09:36:22;27.90;;;17.38;;
28802;SDS011;15949;55.656;37.422;2024-01-15T09:41:28;27.85;;;18.58;;
28802;SDS011;15949;55.656;37.422;2024-01-15T09:46:34;25.50;;;17.13;;
28802;SDS011;15949;55.656;37.422;2024-01-15T09:51:40;28.02;;;17.65;;
28802;SDS011;15949;55.656;37.422;2024-01-15T09:56:47;25.75;;;16.50;;
28802;SDS011;15949;55.656;37.422;2024-01-15T10:01:52;23.70;;;16.50;;
28802;SDS011;15949;55.656;37.422;2024-01-15T10:07:00;26.63;;;16.85;;
28802;SDS011;15949;55.656;37.422;2024-01-15T10:12:06;35.60;;;22.85;;
28802;SDS011;15949;55.656;37.422;2024-01-15T10:17:13;82.07;;;42.70;;
28802;SDS011;15949;55.656;37.422;2024-01-15T10:27:28;30.63;;;19.23;;
28802;SDS011;15949;55.656;37.422;2024-01-15T10:32:34;35.53;;;18.88;;
28802;SDS011;15949;55.656;37.422;2024-01-15T10:37:41;31.33;;;19.20;;
28802;SDS011;15949;55.656;37.422;2024-01-15T10:42:46;29.60;;;19.05;;
28802;SDS011;15949;55.656;37.422;2024-01-15T10:47:53;31.58;;;19.10;;
28802;SDS011;15949;55.656;37.422;2024-01-15T10:53:04;31.80;;;19.10;;
28802;SDS011;15949;55.656;37.422;2024-01-15T10:58:10;29.42;;;18.65;;
28802;SDS011;15949;55.656;37.422;2024-01-15T11:03:16;29.00;;;18.27;;
28802;SDS011;15949;55.656;37.422;2024-01-15T11:08:24;29.88;;;19.25;;
28802;SDS011;15949;55.656;37.422;2024-01-15T11:18:42;25.00;;;16.67;;
28802;SDS011;15949;55.656;37.422;2024-01-15T11:24:06;26.60;;;17.98;;
28802;SDS011;15949;55.656;37.422;2024-01-15T11:34:53;28.67;;;17.25;;
28802;SDS011;15949;55.656;37.422;2024-01-15T11:40:09;26.35;;;17.80;;
28802;SDS011;15949;55.656;37.422;2024-01-15T11:45:18;30.80;;;18.75;;
28802;SDS011;15949;55.656;37.422;2024-01-15T11:50:25;28.98;;;18.75;;
28802;SDS011;15949;55.656;37.422;2024-01-15T11:55:34;28.50;;;17.98;;
28802;SDS011;15949;55.656;37.422;2024-01-15T12:00:44;30.63;;;19.08;;
28802;SDS011;15949;55.656;37.422;2024-01-15T12:05:52;33.17;;;19.77;;
28802;SDS011;15949;55.656;37.422;2024-01-15T12:10:58;27.52;;;18.58;;
28802;SDS011;15949;55.656;37.422;2024-01-15T12:16:03;31.95;;;18.98;;
28802;SDS011;15949;55.656;37.422;2024-01-15T12:21:09;28.48;;;18.63;;
28802;SDS011;15949;55.656;37.422;2024-01-15T12:26:15;28.42;;;18.75;;
28802;SDS011;15949;55.656;37.422;2024-01-15T12:31:20;31.40;;;19.10;;
28802;SDS011;15949;55.656;37.422;2024-01-15T12:36:26;30.77;;;19.05;;
28802;SDS011;15949;55.656;37.422;2024-01-15T12:41:32;30.15;;;19.35;;
28802;SDS011;15949;55.656;37.422;2024-01-15T12:46:39;33.45;;;19.63;;
28802;SDS011;15949;55.656;37.422;2024-01-15T12:51:51;32.00;;;19.60;;
28802;SDS011;15949;55.656;37.422;2024-01-15T12:56:58;36.28;;;20.02;;
28802;SDS011;15949;55.656;37.422;2024-01-15T13:02:03;32.33;;;19.42;;
28802;SDS011;15949;55.656;37.422;2024-01-15T13:07:09;34.75;;;19.90;;
28802;SDS011;15949;55.656;37.422;2024-01-15T13:12:15;31.77;;;20.10;;
28802;SDS011;15949;55.656;37.422;2024-01-15T13:17:20;33.83;;;19.70;;
28802;SDS011;15949;55.656;37.422;2024-01-15T13:22:26;33.85;;;20.52;;
28802;SDS011;15949;55.656;37.422;2024-01-15T13:27:36;32.38;;;20.30;;
28802;SDS011;15949;55.656;37.422;2024-01-15T13:32:42;30.02;;;19.50;;
28802;SDS011;15949;55.656;37.422;2024-01-15T13:37:48;33.42;;;20.27;;
28802;SDS011;15949;55.656;37.422;2024-01-15T13:42:53;31.48;;;20.60;;
28802;SDS011;15949;55.656;37.422;2024-01-15T13:47:59;33.80;;;20.65;;
28802;SDS011;15949;55.656;37.422;2024-01-15T13:53:05;35.08;;;21.35;;
28802;SDS011;15949;55.656;37.422;2024-01-15T13:58:11;43.25;;;20.95;;
28802;SDS011;15949;55.656;37.422;2024-01-15T14:03:18;32.35;;;19.90;;
28802;SDS011;15949;55.656;37.422;2024-01-15T14:08:24;33.72;;;21.00;;
28802;SDS011;15949;55.656;37.422;2024-01-15T14:13:30;36.38;;;21.75;;
28802;SDS011;15949;55.656;37.422;2024-01-15T14:18:36;34.05;;;21.55;;
28802;SDS011;15949;55.656;37.422;2024-01-15T14:23:41;43.17;;;22.80;;
28802;SDS011;15949;55.656;37.422;2024-01-15T14:28:47;36.95;;;22.75;;
28802;SDS011;15949;55.656;37.422;2024-01-15T14:33:53;39.15;;;23.38;;
28802;SDS011;15949;55.656;37.422;2024-01-15T14:39:00;33.60;;;21.52;;
28802;SDS011;15949;55.656;37.422;2024-01-15T14:44:06;37.58;;;22.52;;
28802;SDS011;15949;55.656;37.422;2024-01-15T14:49:11;37.25;;;23.15;;
28802;SDS011;15949;55.656;37.422;2024-01-15T14:54:17;39.45;;;22.50;;
28802;SDS011;15949;55.656;37.422;2024-01-15T14:59:22;36.80;;;23.27;;
28802;SDS011;15949;55.656;37.422;2024-01-15T15:04:28;41.17;;;22.77;;
28802;SDS011;15949;55.656;37.422;2024-01-15T15:09:34;38.05;;;23.25;;
28802;SDS011;15949;55.656;37.422;2024-01-15T15:14:42;44.92;;;26.08;;
28802;SDS011;15949;55.656;37.422;2024-01-15T15:19:48;43.58;;;22.42;;
28802;SDS011;15949;55.656;37.422;2024-01-15T15:24:53;43.47;;;24.80;;
28802;SDS011;15949;55.656;37.422;2024-01-15T15:30:00;47.00;;;27.83;;
28802;SDS011;15949;55.656;37.422;2024-01-15T15:35:05;37.90;;;22.98;;
28802;SDS011;15949;55.656;37.422;2024-01-15T15:40:11;41.63;;;24.10;;
28802;SDS011;15949;55.656;37.422;2024-01-15T15:45:18;40.20;;;23.48;;
28802;SDS011;15949;55.656;37.422;2024-01-15T15:50:23;41.15;;;22.88;;
28802;SDS011;15949;55.656;37.422;2024-01-15T15:55:29;46.50;;;26.02;;
28802;SDS011;15949;55.656;37.422;2024-01-15T16:00:35;41.58;;;24.70;;
28802;SDS011;15949;55.656;37.422;2024-01-15T16:05:40;40.15;;;23.08;;
28802;SDS011;15949;55.656;37.422;2024-01-15T16:10:46;39.53;;;24.42;;
28802;SDS011;15949;55.656;37.422;2024-01-15T16:15:56;37.35;;;23.25;;
28802;SDS011;15949;55.656;37.422;2024-01-15T16:21:02;35.42;;;23.25;;
28802;SDS011;15949;55.656;37.422;2024-01-15T16:26:08;38.60;;;24.00;;
28802;SDS011;15949;55.656;37.422;2024-01-15T16:31:13;35.05;;;22.55;;
28802;SDS011;15949;55.656;37.422;2024-01-15T16:36:19;36.08;;;22.30;;
28802;SDS011;15949;55.656;37.422;2024-01-15T16:41:25;33.38;;;22.08;;
28802;SDS011;15949;55.656;37.422;2024-01-15T16:46:31;36.45;;;23.77;;
28802;SDS011;15949;55.656;37.422;2024-01-15T16:51:37;37.97;;;23.23;;
28802;SDS011;15949;55.656;37.422;2024-01-15T16:56:42;39.85;;;24.20;;
28802;SDS011;15949;55.656;37.422;2024-01-15T17:01:48;41.45;;;25.30;;
28802;SDS011;15949;55.656;37.422;2024-01-15T17:06:54;41.80;;;25.45;;
28802;SDS011;15949;55.656;37.422;2024-01-15T17:12:00;39.58;;;24.92;;
28802;SDS011;15949;55.656;37.422;2024-01-15T17:17:05;43.70;;;25.23;;
28802;SDS011;15949;55.656;37.422;2024-01-15T17:22:11;42.72;;;25.05;;
28802;SDS011;15949;55.656;37.422;2024-01-15T17:27:16;44.22;;;26.45;;
28802;SDS011;15949;55.656;37.422;2024-01-15T17:32:22;41.20;;;24.85;;
28802;SDS011;15949;55.656;37.422;2024-01-15T17:37:28;43.25;;;25.92;;
28802;SDS011;15949;55.656;37.422;2024-01-15T17:42:34;46.92;;;26.58;;
28802;SDS011;15949;55.656;37.422;2024-01-15T17:47:39;43.03;;;26.38;;
28802;SDS011;15949;55.656;37.422;2024-01-15T17:52:46;43.33;;;25.60;;
28802;SDS011;15949;55.656;37.422;2024-01-15T17:57:51;42.38;;;25.42;;
28802;SDS011;15949;55.656;37.422;2024-01-15T18:02:58;42.70;;;25.38;;
28802;SDS011;15949;55.656;37.422;2024-01-15T18:08:03;42.78;;;24.85;;
28802;SDS011;15949;55.656;37.422;2024-01-15T18:13:09;41.00;;;24.48;;
28802;SDS011;15949;55.656;37.422;2024-01-15T18:18:15;41.55;;;25.20;;
28802;SDS011;15949;55.656;37.422;2024-01-15T18:23:21;41.15;;;25.25;;
28802;SDS011;15949;55.656;37.422;2024-01-15T18:28:26;44.88;;;26.70;;
28802;SDS011;15949;55.656;37.422;2024-01-15T18:33:32;44.53;;;25.23;;
28802;SDS011;15949;55.656;37.422;2024-01-15T18:38:40;42.40;;;25.52;;
28802;SDS011;15949;55.656;37.422;2024-01-15T18:43:45;40.22;;;23.90;;
28802;SDS011;15949;55.656;37.422;2024-01-15T18:48:51;40.42;;;24.55;;
28802;SDS011;15949;55.656;37.422;2024-01-15T18:53:57;37.60;;;24.05;;
28802;SDS011;15949;55.656;37.422;2024-01-15T18:59:02;40.50;;;25.25;;
28802;SDS011;15949;55.656;37.422;2024-01-15T19:04:08;41.40;;;25.42;;
28802;SDS011;15949;55.656;37.422;2024-01-15T19:09:15;40.97;;;25.30;;
28802;SDS011;15949;55.656;37.422;2024-01-15T19:14:21;40.13;;;23.80;;
28802;SDS011;15949;55.656;37.422;2024-01-15T19:19:27;40.50;;;24.67;;
28802;SDS011;15949;55.656;37.422;2024-01-15T19:24:35;40.78;;;25.35;;
28802;SDS011;15949;55.656;37.422;2024-01-15T19:29:41;44.78;;;25.42;;
28802;SDS011;15949;55.656;37.422;2024-01-15T19:34:47;40.35;;;24.83;;
28802;SDS011;15949;55.656;37.422;2024-01-15T19:39:52;39.38;;;24.10;;
28802;SDS011;15949;55.656;37.422;2024-01-15T19:44:58;42.72;;;25.30;;
28802;SDS011;15949;55.656;37.422;2024-01-15T19:50:04;40.85;;;24.45;;
28802;SDS011;15949;55.656;37.422;2024-01-15T19:55:10;41.42;;;25.55;;
28802;SDS011;15949;55.656;37.422;2024-01-15T20:00:16;41.50;;;24.80;;
28802;SDS011;15949;55.656;37.422;2024-01-15T20:05:22;41.95;;;25.17;;
28802;SDS011;15949;55.656;37.422;2024-01-15T20:10:28;43.08;;;25.65;;
28802;SDS011;15949;55.656;37.422;2024-01-15T20:15:35;45.33;;;25.83;;
28802;SDS011;15949;55.656;37.422;2024-01-15T20:20:42;44.50;;;27.10;;
28802;SDS011;15949;55.656;37.422;2024-01-15T20:25:48;44.90;;;27.33;;
28802;SDS011;15949;55.656;37.422;2024-01-15T20:30:54;46.70;;;28.15;;
28802;SDS011;15949;55.656;37.422;2024-01-15T20:36:00;45.92;;;28.02;;
28802;SDS011;15949;55.656;37.422;2024-01-15T20:41:05;43.58;;;27.45;;
28802;SDS011;15949;55.656;37.422;2024-01-15T20:46:11;47.78;;;26.23;;
28802;SDS011;15949;55.656;37.422;2024-01-15T20:51:17;50.78;;;29.90;;
28802;SDS011;15949;55.656;37.422;2024-01-15T20:56:23;53.20;;;28.83;;
28802;SDS011;15949;55.656;37.422;2024-01-15T21:01:28;52.28;;;30.23;;
28802;SDS011;15949;55.656;37.422;2024-01-15T21:06:34;44.70;;;26.35;;
28802;SDS011;15949;55.656;37.422;2024-01-15T21:11:40;45.90;;;27.80;;
28802;SDS011;15949;55.656;37.422;2024-01-15T21:16:45;44.03;;;27.80;;
28802;SDS011;15949;55.656;37.422;2024-01-15T21:21:51;42.90;;;27.50;;
28802;SDS011;15949;55.656;37.422;2024-01-15T21:26:57;43.83;;;25.63;;
28802;SDS011;15949;55.656;37.422;2024-01-15T21:32:03;41.92;;;25.90;;
28802;SDS011;15949;55.656;37.422;2024-01-15T21:37:09;41.17;;;25.42;;
28802;SDS011;15949;55.656;37.422;2024-01-15T21:42:15;40.20;;;25.38;;
28802;SDS011;15949;55.656;37.422;2024-01-15T21:47:20;41.03;;;25.38;;
28802;SDS011;15949;55.656;37.422;2024-01-15T21:52:27;43.17;;;25.88;;
28802;SDS011;15949;55.656;37.422;2024-01-15T21:57:33;37.55;;;24.42;;
28802;SDS011;15949;55.656;37.422;2024-01-15T22:02:38;36.20;;;23.05;;
28802;SDS011;15949;55.656;37.422;2024-01-15T22:07:46;40.55;;;23.83;;
28802;SDS011;15949;55.656;37.422;2024-01-15T22:12:52;37.13;;;23.90;;
28802;SDS011;15949;55.656;37.422;2024-01-15T22:17:57;34.35;;;21.67;;
28802;SDS011;15949;55.656;37.422;2024-01-15T22:23:04;34.25;;;22.55;;
28802;SDS011;15949;55.656;37.422;2024-01-15T22:28:09;34.88;;;22.85;;
28802;SDS011;15949;55.656;37.422;2024-01-15T22:33:15;32.13;;;21.42;;
28802;SDS011;15949;55.656;37.422;2024-01-15T22:38:21;33.08;;;20.27;;
28802;SDS011;15949;55.656;37.422;2024-01-15T22:43:27;30.60;;;19.58;;
28802;SDS011;15949;55.656;37.422;2024-01-15T22:48:32;30.05;;;19.48;;
28802;SDS011;15949;55.656;37.422;2024-01-15T22:53:38;30.52;;;18.92;;
28802;SDS011;15949;55.656;37.422;2024-01-15T22:58:43;32.22;;;19.80;;
28802;SDS011;15949;55.656;37.422;2024-01-15T23:03:49;30.67;;;20.50;;
28802;SDS011;15949;55.656;37.422;2024-01-15T23:08:55;27.05;;;18.27;;
28802;SDS011;15949;55.656;37.422;2024-01-15T23:14:00;28.05;;;17.48;;
28802;SDS011;15949;55.656;37.422;2024-01-15T23:19:06;27.30;;;18.63;;
28802;SDS011;15949;55.656;37.422;2024-01-15T23:24:11;25.55;;;17.17;;
28802;SDS011;15949;55.656;37.422;2024-01-15T23:29:17;23.48;;;15.90;;
28802;SDS011;15949;55.656;37.422;2024-01-15T23:34:23;22.35;;;15.40;;
28802;SDS011;15949;55.656;37.422;2024-01-15T23:39:28;24.15;;;15.70;;
28802;SDS011;15949;55.656;37.422;2024-01-15T23:44:34;23.85;;;15.60;;
28802;SDS011;15949;55.656;37.422;2024-01-15T23:49:42;21.55;;;14.98;;
28802;SDS011;15949;55.656;37.422;2024-01-15T23:54:48;21.63;;;14.18;;
28802;SDS011;15949;55.656;37.422;2024-01-15T23:59:54;24.35;;;14.95;;
